Decoded Metar for OMDB (DUBAI in UNITED ARAB EMIRATES) (IATA:DXB) | Meteo·Mobile Aviation Weather
aviador You're here:

OMDB Decoded Metar

DUBAI in UNITED ARAB EMIRATES
Report Time2018-08-20 01:00:00
UTC Time2018-08-20 01:26:19
Flight Rules vfr VFR
Wind050° at 05 kt
W.Decomp.*RWY 12: 1.6 kt HW 4.7 kt LCW
W.Rank050° ranks 23
Current wind is below 050° avg. (5.7)
Visibility9999 m
Phenomena:N/A
Clouds:N/A
Expected CloudBase > 2,000 ft AGL from Temp-Dew spread
CeilingNone
Temp34°C (ISA +19)
Dew Point29°C (75% RH)
Heat Index49.4°C
QNH0997 hPa
Density Alt3,241 ft
Elevation16 ft
Report Wrong Elevation
Raw Report
METAR OMDB 200100Z 05005KT 340V100 CAVOK 34/29 Q0997 NOSIG=

Extra information for OMDB:More info

Metar Taf Metar & Taf Last 4 Metars F.Rules Stats Wind Profile Meteogram Temp Stats Airport Information Weather charts Add Link Nearby VenuesMetar ALERT Operation Metar Decoded Social comments